Time;durP1;ratioP1;P1;durP2;ratioP2;P2;SDS_P1;SDS_P2;PMS_P1;PMS_P2;Temp;Humidity;BMP_temperature;BMP_pressure;BME280_temperature;BME280_humidity;BME280_pressure;Samples;Min_cycle;Max_cycle;Signal;HPM_P1;HPM_P2
2023/06/18 00:01:41;;;;;;;31.90;25.27;;;;;;;15.57;100.00;92511.97;5076670;28;20185;-79
2023/06/18 00:04:07;;;;;;;29.20;26.40;;;;;;;15.74;100.00;92554.06;5081245;28;20607;-80
2023/06/18 00:06:32;;;;;;;30.60;27.30;;;;;;;15.76;100.00;92526.38;5069958;28;20220;-80
2023/06/18 00:08:58;;;;;;;30.50;26.37;;;;;;;15.25;100.00;92491.38;5067846;28;20216;-79
2023/06/18 00:11:23;;;;;;;29.77;26.67;;;;;;;15.26;100.00;92501.56;5069698;28;20229;-78
2023/06/18 00:13:48;;;;;;;30.13;26.53;;;;;;;14.96;100.00;92451.75;5069571;28;20177;-80
2023/06/18 00:16:14;;;;;;;29.73;26.30;;;;;;;15.57;100.00;92525.91;5069288;28;20217;-80
2023/06/18 00:18:39;;;;;;;30.30;26.30;;;;;;;15.50;100.00;92527.47;5069667;28;20215;-80
2023/06/18 00:21:07;;;;;;;57.07;51.77;;;;;;;15.28;100.00;92515.22;5070696;28;20226;-79
2023/06/18 00:23:33;;;;;;;31.27;27.90;;;;;;;15.43;100.00;92543.69;5060571;28;20200;-80
2023/06/18 00:25:58;;;;;;;33.93;27.33;;;;;;;15.12;100.00;92494.91;5085124;28;20214;-79
2023/06/18 00:28:23;;;;;;;31.43;28.23;;;;;;;15.30;100.00;92485.97;5068539;28;20196;-79
2023/06/18 00:30:49;;;;;;;32.90;27.70;;;;;;;15.38;100.00;92477.31;5069330;28;20249;-80
2023/06/18 00:33:14;;;;;;;32.23;28.37;;;;;;;15.51;100.00;92532.41;5068952;28;20201;-80
2023/06/18 00:35:40;;;;;;;33.13;28.50;;;;;;;15.52;100.00;92520.00;5069393;28;20221;-80
2023/06/18 00:38:05;;;;;;;31.53;28.37;;;;;;;15.36;100.00;92534.69;5056623;28;20174;-80
2023/06/18 00:40:31;;;;;;;33.63;29.67;;;;;;;15.59;100.00;92529.00;5071469;28;20296;-80
2023/06/18 00:42:56;;;;;;;31.87;27.47;;;;;;;15.64;100.00;92552.50;5072215;28;20199;-79
2023/06/18 00:45:22;;;;;;;31.13;27.30;;;;;;;14.94;100.00;92467.06;5073101;28;20232;-80
2023/06/18 00:47:48;;;;;;;34.20;30.50;;;;;;;15.44;100.00;92528.69;5073676;28;20185;-81
2023/06/18 00:50:18;;;;;;;33.93;29.43;;;;;;;15.50;100.00;92549.25;5073100;28;20247;-81
2023/06/18 00:52:47;;;;;;;32.80;29.07;;;;;;;15.14;100.00;92493.53;5073440;28;20215;-81
2023/06/18 00:55:17;;;;;;;35.20;31.03;;;;;;;15.32;100.00;92539.00;5072923;28;20236;-81
2023/06/18 00:57:49;;;;;;;31.90;28.00;;;;;;;15.33;100.00;92516.91;5073448;28;20185;-80
2023/06/18 01:00:16;;;;;;;37.50;30.80;;;;;;;15.45;100.00;92522.34;5086018;28;20235;-82
2023/06/18 01:02:45;;;;;;;34.53;29.37;;;;;;;15.83;100.00;92541.66;5087566;28;20271;-82
2023/06/18 01:05:13;;;;;;;34.50;29.43;;;;;;;15.33;100.00;92496.63;5075965;28;20215;-81
2023/06/18 01:07:42;;;;;;;35.37;29.80;;;;;;;15.58;100.00;92542.47;5073341;28;20251;-81
2023/06/18 01:10:07;;;;;;;34.47;30.07;;;;;;;15.19;100.00;92442.66;5071652;28;20217;-81
2023/06/18 01:12:33;;;;;;;37.90;30.43;;;;;;;15.67;100.00;92511.66;5065510;28;20269;-81
2023/06/18 01:14:59;;;;;;;36.67;29.13;;;;;;;15.29;100.00;92521.22;5071484;28;20233;-82
2023/06/18 01:17:29;;;;;;;40.40;31.73;;;;;;;15.35;100.00;92475.25;5089038;28;20205;-81
2023/06/18 01:20:00;;;;;;;35.40;30.47;;;;;;;15.09;100.00;92429.78;5088157;28;20240;-81
2023/06/18 01:22:41;;;;;;;40.23;30.23;;;;;;;15.94;100.00;92543.69;5082589;28;20184;-81
2023/06/18 01:25:09;;;;;;;37.80;30.50;;;;;;;14.79;100.00;92434.09;5075372;28;20216;-77
2023/06/18 01:27:40;;;;;;;37.97;32.27;;;;;;;15.63;100.00;92543.09;5072933;28;20173;-76
2023/06/18 01:30:07;;;;;;;40.00;32.50;;;;;;;15.76;100.00;92542.16;5059709;28;20225;-75
2023/06/18 01:32:33;;;;;;;38.50;32.53;;;;;;;15.83;100.00;92544.28;5072902;28;20197;-76
2023/06/18 01:35:00;;;;;;;37.40;30.20;;;;;;;15.27;100.00;92452.38;5072436;28;20252;-76
2023/06/18 01:37:41;;;;;;;35.33;30.80;;;;;;;14.73;100.00;92437.19;5072678;28;20185;-75
2023/06/18 01:40:27;;;;;;;41.93;32.73;;;;;;;15.56;100.00;92539.38;5072207;28;20217;-76
2023/06/18 01:43:11;;;;;;;37.93;31.77;;;;;;;15.68;100.00;92529.00;5072448;28;20196;-76
2023/06/18 01:46:02;;;;;;;39.57;32.03;;;;;;;15.09;100.00;92487.63;5071952;28;20228;-76
2023/06/18 01:48:34;;;;;;;37.63;31.60;;;;;;;15.21;100.00;92493.06;5088268;28;20241;-77
2023/06/18 01:51:01;;;;;;;38.90;32.63;;;;;;;15.71;100.00;92539.69;5070939;28;20236;-75
2023/06/18 01:53:28;;;;;;;38.57;31.87;;;;;;;15.44;100.00;92508.41;5071946;28;20197;-77
2023/06/18 01:55:56;;;;;;;37.60;31.80;;;;;;;15.32;100.00;92483.78;5065129;28;20228;-76
2023/06/18 01:58:22;;;;;;;38.70;33.47;;;;;;;15.83;100.00;92550.34;5069367;28;20189;-77
2023/06/18 02:00:48;;;;;;;37.30;29.60;;;;;;;15.35;100.00;92510.25;5071871;28;20845;-77
2023/06/18 02:03:14;;;;;;;38.10;32.00;;;;;;;15.69;100.00;92546.31;5093609;28;20245;-75
2023/06/18 02:05:39;;;;;;;40.90;32.27;;;;;;;15.51;100.00;92529.00;5075534;28;20229;-76
2023/06/18 02:08:05;;;;;;;40.33;33.33;;;;;;;15.65;100.00;92537.50;5072144;28;20185;-75
2023/06/18 02:10:30;;;;;;;37.20;31.63;;;;;;;15.49;100.00;92531.16;5071190;28;20244;-77
2023/06/18 02:12:55;;;;;;;40.57;33.77;;;;;;;15.21;100.00;92487.78;5070745;28;20206;-77
2023/06/18 02:15:21;;;;;;;38.63;31.30;;;;;;;15.69;100.00;92556.84;5071520;28;20264;-76
2023/06/18 02:17:46;;;;;;;40.43;32.43;;;;;;;15.74;100.00;92549.59;5071686;28;20201;-77
2023/06/18 02:20:12;;;;;;;36.50;29.73;;;;;;;15.15;100.00;92486.41;5071481;28;20233;-75
2023/06/18 02:22:38;;;;;;;38.37;31.33;;;;;;;15.39;100.00;92510.44;5065636;28;20775;-76
2023/06/18 02:25:05;;;;;;;39.43;32.30;;;;;;;15.52;100.00;92554.22;5071119;28;20233;-76
2023/06/18 02:27:30;;;;;;;42.53;32.27;;;;;;;15.27;100.00;92497.09;5054305;28;20189;-76
2023/06/18 02:29:55;;;;;;;37.33;30.50;;;;;;;15.30;100.00;92554.34;5071031;28;20251;-75
2023/06/18 02:32:21;;;;;;;42.13;31.77;;;;;;;15.43;100.00;92511.34;5071701;28;20213;-76
2023/06/18 02:34:46;;;;;;;37.47;32.17;;;;;;;15.50;100.00;92504.53;5071231;28;20237;-77
2023/06/18 02:37:12;;;;;;;36.67;30.40;;;;;;;15.63;100.00;92521.25;5071498;28;20185;-75
2023/06/18 02:39:38;;;;;;;39.97;30.53;;;;;;;15.99;100.00;92555.91;5070854;28;20229;-76
2023/06/18 02:42:03;;;;;;;38.20;31.33;;;;;;;15.86;100.00;92557.63;5072106;28;20193;-75
2023/06/18 02:44:31;;;;;;;36.93;31.13;;;;;;;15.59;100.00;92502.69;5071021;28;20226;-76
2023/06/18 02:46:57;;;;;;;35.27;29.30;;;;;;;16.00;100.00;92549.53;5071620;28;20189;-76
2023/06/18 02:49:22;;;;;;;34.63;30.97;;;;;;;15.65;100.00;92550.66;5070632;28;20300;-76
2023/06/18 02:51:47;;;;;;;36.17;30.57;;;;;;;15.80;100.00;92563.34;5071094;28;20213;-76
2023/06/18 02:54:13;;;;;;;35.27;30.10;;;;;;;16.05;100.00;92570.44;5070373;28;20190;-76
2023/06/18 02:56:38;;;;;;;33.30;29.70;;;;;;;15.27;100.00;92489.97;5071263;28;20192;-76
2023/06/18 02:59:04;;;;;;;38.43;29.40;;;;;;;15.51;100.00;92532.41;5070546;28;20177;-77
2023/06/18 03:01:31;;;;;;;38.33;29.30;;;;;;;15.93;100.00;92573.72;5086951;28;20253;-76
2023/06/18 03:03:57;;;;;;;34.93;30.97;;;;;;;15.91;100.00;92569.84;5081892;28;20188;-76
2023/06/18 03:06:23;;;;;;;34.67;30.50;;;;;;;15.72;100.00;92548.34;5070464;28;20240;-76
2023/06/18 03:08:48;;;;;;;35.00;30.00;;;;;;;15.33;100.00;92456.41;5070700;28;20189;-76
2023/06/18 03:11:14;;;;;;;39.43;31.27;;;;;;;16.17;100.00;92554.81;5070258;28;20228;-76
2023/06/18 03:13:39;;;;;;;36.53;31.77;;;;;;;16.00;100.00;92571.38;5071020;28;20208;-77
2023/06/18 03:16:05;;;;;;;34.50;30.37;;;;;;;15.73;100.00;92536.72;5070172;28;20225;-76
2023/06/18 03:18:31;;;;;;;37.33;30.30;;;;;;;15.75;100.00;92531.94;5070884;28;20236;-76
2023/06/18 03:20:56;;;;;;;33.67;29.67;;;;;;;15.96;100.00;92575.75;5070792;28;20243;-75
2023/06/18 03:23:22;;;;;;;34.67;30.53;;;;;;;15.70;100.00;92558.41;5075180;28;20189;-76
2023/06/18 03:25:47;;;;;;;37.70;29.77;;;;;;;15.98;100.00;92543.81;5070202;28;20233;-76
2023/06/18 03:28:12;;;;;;;35.33;30.80;;;;;;;15.93;100.00;92570.31;5070655;28;20723;-75
2023/06/18 03:30:38;;;;;;;34.70;30.20;;;;;;;15.57;100.00;92522.50;5070283;28;20268;-78
2023/06/18 03:33:04;;;;;;;35.30;30.03;;;;;;;15.78;100.00;92534.69;5067301;28;20228;-76
2023/06/18 03:35:30;;;;;;;35.20;29.60;;;;;;;15.98;100.00;92572.78;5070040;28;20743;-77
2023/06/18 03:37:55;;;;;;;35.77;30.67;;;;;;;15.49;100.00;92465.38;5052352;28;20177;-76
2023/06/18 03:40:21;;;;;;;34.00;30.23;;;;;;;15.58;100.00;92510.91;5070160;28;20217;-76
2023/06/18 03:42:46;;;;;;;40.43;30.77;;;;;;;16.28;100.00;92574.44;5070591;28;20182;-76
2023/06/18 03:45:12;;;;;;;35.90;31.17;;;;;;;16.22;100.00;92554.59;5085632;28;20214;-76
2023/06/18 03:47:37;;;;;;;32.37;28.87;;;;;;;16.02;100.00;92531.56;5052678;28;20220;-77
2023/06/18 03:50:03;;;;;;;35.90;30.00;;;;;;;16.03;100.00;92567.38;5069940;28;20224;-77
2023/06/18 03:52:28;;;;;;;34.13;28.77;;;;;;;16.25;100.00;92569.78;5069884;28;20264;-77
2023/06/18 03:54:54;;;;;;;32.87;28.37;;;;;;;16.13;100.00;92555.72;5069600;28;20221;-77
2023/06/18 03:57:20;;;;;;;35.40;29.93;;;;;;;15.99;100.00;92534.84;5069954;28;20187;-76
2023/06/18 03:59:46;;;;;;;32.97;29.37;;;;;;;16.22;100.00;92585.47;5070078;28;20221;-76
2023/06/18 04:02:12;;;;;;;34.30;29.00;;;;;;;16.27;100.00;92587.91;5069764;28;20204;-76
2023/06/18 04:04:38;;;;;;;34.53;30.17;;;;;;;15.98;100.00;92560.38;5078797;28;20267;-76
2023/06/18 04:07:04;;;;;;;35.23;31.07;;;;;;;16.40;100.00;92603.56;5069429;28;20182;-75
2023/06/18 04:09:29;;;;;;;35.57;29.13;;;;;;;15.52;100.00;92481.31;5071731;28;20216;-77
2023/06/18 04:11:55;;;;;;;35.43;29.47;;;;;;;16.58;100.00;92577.94;5069142;28;20274;-76
2023/06/18 04:14:20;;;;;;;34.20;28.87;;;;;;;15.45;100.00;92454.72;5068751;28;20236;-77
2023/06/18 04:16:46;;;;;;;31.13;27.83;;;;;;;16.50;100.00;92603.25;5063998;28;20196;-75
2023/06/18 04:19:11;;;;;;;33.70;28.60;;;;;;;16.37;100.00;92588.38;5059961;28;20204;-75
2023/06/18 04:21:38;;;;;;;34.43;27.83;;;;;;;16.06;100.00;92585.19;5063919;28;20185;-75
2023/06/18 04:24:04;;;;;;;32.20;28.53;;;;;;;16.00;100.00;92567.97;5056295;28;20181;-77
2023/06/18 04:26:30;;;;;;;35.17;29.03;;;;;;;16.46;100.00;92604.97;5061126;28;20249;-76
2023/06/18 04:28:55;;;;;;;31.73;28.33;;;;;;;16.76;100.00;92598.66;5075988;28;20291;-69
2023/06/18 04:31:20;;;;;;;32.23;27.60;;;;;;;16.38;100.00;92605.72;5075364;28;20235;-69
2023/06/18 04:33:46;;;;;;;38.00;29.43;;;;;;;16.27;100.00;92609.00;5065011;28;20197;-69
2023/06/18 04:36:12;;;;;;;33.37;28.40;;;;;;;16.51;100.00;92611.94;5067541;28;20225;-71
2023/06/18 04:38:38;;;;;;;31.93;28.20;;;;;;;16.22;100.00;92607.28;5054718;28;20258;-70
2023/06/18 04:41:03;;;;;;;33.43;27.27;;;;;;;16.25;100.00;92595.38;5060731;28;20217;-70
2023/06/18 04:43:29;;;;;;;32.73;27.97;;;;;;;16.75;100.00;92612.94;5054697;28;20188;-70
2023/06/18 04:45:54;;;;;;;35.10;27.67;;;;;;;16.96;100.00;92605.09;5060437;28;20277;-69
2023/06/18 04:48:19;;;;;;;32.60;28.03;;;;;;;16.67;100.00;92587.38;5061467;28;20190;-71
2023/06/18 04:50:45;;;;;;;29.17;26.07;;;;;;;16.68;100.00;92615.31;5060071;28;20237;-70
2023/06/18 04:53:10;;;;;;;28.73;25.77;;;;;;;16.98;100.00;92614.25;5083507;28;20213;-71
2023/06/18 04:55:37;;;;;;;28.30;25.20;;;;;;;17.08;99.25;92608.63;5054764;28;21217;-69
2023/06/18 04:58:04;;;;;;;28.77;25.80;;;;;;;16.66;100.00;92596.38;5061462;28;20188;-70
2023/06/18 05:00:29;;;;;;;28.37;25.03;;;;;;;17.31;100.00;92636.28;5056814;28;20289;-70
2023/06/18 05:02:57;;;;;;;28.50;25.17;;;;;;;17.00;98.40;92638.44;5056110;28;20205;-71
2023/06/18 05:05:22;;;;;;;26.93;24.00;;;;;;;17.02;100.00;92623.09;5054961;28;20232;-73
2023/06/18 05:07:48;;;;;;;27.33;24.43;;;;;;;16.92;100.00;92636.59;5062502;28;20244;-72
2023/06/18 05:10:13;;;;;;;28.37;25.43;;;;;;;17.13;100.00;92621.63;5063800;28;20230;-71
2023/06/18 05:12:39;;;;;;;27.27;24.00;;;;;;;17.14;100.00;92646.13;5055374;28;20218;-70
2023/06/18 05:15:06;;;;;;;27.10;24.33;;;;;;;17.45;98.42;92644.78;5047996;28;20229;-73
2023/06/18 05:17:32;;;;;;;27.87;24.90;;;;;;;16.99;98.48;92626.34;5054488;28;20230;-73
2023/06/18 05:19:57;;;;;;;27.47;24.23;;;;;;;16.92;100.00;92628.69;5068265;28;20225;-76
2023/06/18 05:22:22;;;;;;;28.93;24.37;;;;;;;17.11;99.65;92666.03;5067596;28;20192;-77
2023/06/18 05:24:48;;;;;;;27.83;24.57;;;;;;;17.26;100.00;92662.84;5068428;28;20252;-77
2023/06/18 05:27:13;;;;;;;28.77;24.23;;;;;;;17.08;99.32;92671.94;5087906;28;20188;-74
2023/06/18 05:29:39;;;;;;;28.40;25.50;;;;;;;16.96;99.98;92661.28;5064858;28;20225;-79
2023/06/18 05:32:04;;;;;;;27.83;24.93;;;;;;;17.15;98.53;92677.47;5078055;28;20202;-80
2023/06/18 05:34:30;;;;;;;26.20;23.60;;;;;;;16.42;100.00;92669.88;5063966;28;20228;-79
2023/06/18 05:36:55;;;;;;;27.10;24.20;;;;;;;16.63;100.00;92639.19;5083769;28;20185;-79
2023/06/18 05:39:21;;;;;;;28.47;25.27;;;;;;;17.11;100.00;92671.31;5070857;28;20244;-80
2023/06/18 05:41:48;;;;;;;29.00;26.07;;;;;;;16.73;100.00;92661.81;5067846;28;20189;-79
2023/06/18 05:44:13;;;;;;;29.03;26.07;;;;;;;16.61;100.00;92665.06;5056401;28;20183;-79
2023/06/18 05:46:39;;;;;;;28.67;25.57;;;;;;;16.57;99.78;92645.72;5038269;28;20215;-81
2023/06/18 05:49:04;;;;;;;30.07;26.23;;;;;;;16.56;100.00;92686.31;5064364;28;20208;-78
2023/06/18 05:51:29;;;;;;;29.00;24.80;;;;;;;16.41;100.00;92676.25;5060201;28;20202;-79
2023/06/18 05:53:55;;;;;;;30.67;27.53;;;;;;;16.65;100.00;92681.84;5064658;28;20190;-79
2023/06/18 05:56:20;;;;;;;28.17;25.27;;;;;;;16.32;100.00;92699.19;5075988;28;20225;-79
2023/06/18 05:58:46;;;;;;;29.33;24.83;;;;;;;16.29;100.00;92667.41;5075276;28;20253;-78
2023/06/18 06:01:11;;;;;;;30.57;27.43;;;;;;;16.79;100.00;92698.25;5072215;28;20228;-80
2023/06/18 06:03:36;;;;;;;27.30;24.40;;;;;;;16.86;100.00;92674.78;5072728;28;20193;-80
2023/06/18 06:06:02;;;;;;;29.20;25.87;;;;;;;16.78;99.83;92695.94;5071727;28;20221;-79
2023/06/18 06:08:28;;;;;;;29.60;24.63;;;;;;;16.99;100.00;92702.84;5089534;28;20186;-80
2023/06/18 06:10:53;;;;;;;27.40;24.60;;;;;;;16.59;100.00;92712.06;5071773;28;20233;-80
2023/06/18 06:13:19;;;;;;;27.33;24.43;;;;;;;16.55;100.00;92707.72;5072721;28;20239;-79
2023/06/18 06:15:44;;;;;;;27.73;24.73;;;;;;;16.56;100.00;92690.84;5071545;28;20218;-80
2023/06/18 06:18:10;;;;;;;30.13;26.33;;;;;;;16.63;100.00;92718.28;5072302;28;20181;-79
2023/06/18 06:20:35;;;;;;;28.33;25.40;;;;;;;16.82;100.00;92700.25;5071485;28;20266;-80
2023/06/18 06:23:01;;;;;;;32.70;25.70;;;;;;;16.62;100.00;92727.28;5092487;28;20216;-79
2023/06/18 06:25:26;;;;;;;27.70;24.77;;;;;;;16.55;100.00;92689.28;5071473;28;20292;-72
2023/06/18 06:27:51;;;;;;;29.00;25.30;;;;;;;16.59;100.00;92680.44;5071851;28;20177;-74
2023/06/18 06:30:17;;;;;;;28.23;25.30;;;;;;;16.84;100.00;92728.94;5062582;28;20230;-73
2023/06/18 06:32:42;;;;;;;28.10;24.23;;;;;;;16.89;100.00;92732.19;5062414;28;20998;-72
2023/06/18 06:35:08;;;;;;;26.37;23.50;;;;;;;17.00;99.85;92733.41;5066626;28;22014;-76
2023/06/18 06:37:33;;;;;;;27.87;25.03;;;;;;;17.32;99.02;92735.47;5068976;28;20186;-75
2023/06/18 06:39:58;;;;;;;28.40;25.40;;;;;;;17.58;98.60;92741.47;5064940;28;20312;-72
2023/06/18 06:42:24;;;;;;;28.17;25.37;;;;;;;17.97;96.62;92740.31;5062541;28;20217;-73
2023/06/18 06:44:50;;;;;;;29.20;26.27;;;;;;;17.54;97.15;92737.91;5057456;28;20246;-72
2023/06/18 06:47:16;;;;;;;27.13;24.40;;;;;;;17.69;97.28;92739.25;5047832;28;20220;-70
2023/06/18 06:49:42;;;;;;;25.53;23.10;;;;;;;17.84;96.63;92748.50;5062008;28;20233;-72
2023/06/18 06:52:07;;;;;;;26.57;24.07;;;;;;;17.79;96.09;92730.19;5066541;28;20336;-72
2023/06/18 06:54:32;;;;;;;27.00;24.23;;;;;;;17.59;97.80;92750.16;5062081;28;21098;-70
2023/06/18 06:56:58;;;;;;;27.73;25.03;;;;;;;17.13;99.01;92737.72;5064890;28;20200;-72
2023/06/18 06:59:23;;;;;;;27.20;24.50;;;;;;;17.41;99.29;92754.72;5055294;28;20230;-73
2023/06/18 07:01:49;;;;;;;25.77;23.27;;;;;;;17.32;99.36;92740.75;5058116;28;20194;-72
2023/06/18 07:04:14;;;;;;;28.97;24.30;;;;;;;17.50;98.53;92759.97;5062536;28;20197;-72
2023/06/18 07:06:39;;;;;;;26.80;23.97;;;;;;;18.03;97.37;92756.75;5069088;28;20190;-72
2023/06/18 07:09:06;;;;;;;27.60;24.97;;;;;;;18.20;96.79;92767.22;5062197;28;20201;-73
2023/06/18 07:11:33;;;;;;;25.80;23.20;;;;;;;18.76;93.97;92764.03;5066947;28;20233;-70
2023/06/18 07:13:59;;;;;;;26.07;23.17;;;;;;;18.02;95.35;92769.22;5067913;28;20181;-73
2023/06/18 07:16:25;;;;;;;25.83;22.83;;;;;;;17.90;94.76;92755.13;5067592;28;20195;-73
2023/06/18 07:18:50;;;;;;;24.53;22.13;;;;;;;17.93;97.54;92759.78;5064905;28;20582;-75
2023/06/18 07:21:16;;;;;;;25.27;22.37;;;;;;;18.34;95.68;92765.88;5055545;28;20221;-73
2023/06/18 07:23:42;;;;;;;27.90;22.67;;;;;;;18.22;95.01;92778.25;5057769;28;20182;-72
2023/06/18 07:26:07;;;;;;;24.70;22.23;;;;;;;18.12;94.82;92779.41;5067654;28;20243;-72
2023/06/18 07:28:32;;;;;;;23.60;21.10;;;;;;;18.04;95.33;92780.22;5069749;28;20201;-74
2023/06/18 07:30:58;;;;;;;24.73;22.40;;;;;;;18.01;94.99;92777.47;5069817;28;20229;-72
2023/06/18 07:33:26;;;;;;;25.77;23.27;;;;;;;17.67;96.73;92777.59;5069863;28;20220;-72
2023/06/18 07:35:51;;;;;;;24.90;22.37;;;;;;;17.73;95.32;92737.50;5071292;28;20214;-71
2023/06/18 07:38:17;;;;;;;25.77;23.07;;;;;;;18.48;93.75;92787.59;5072356;28;20192;-72
2023/06/18 07:40:42;;;;;;;24.03;21.77;;;;;;;18.36;93.67;92778.78;5068430;28;20910;-71
2023/06/18 07:43:09;;;;;;;24.83;22.43;;;;;;;18.56;93.45;92783.34;5057553;28;21000;-71
2023/06/18 07:45:35;;;;;;;24.73;21.43;;;;;;;17.78;96.32;92784.06;5065876;28;20238;-70
2023/06/18 07:48:00;;;;;;;24.70;22.10;;;;;;;18.03;96.08;92785.81;5071380;28;20209;-71
2023/06/18 07:50:26;;;;;;;24.50;22.00;;;;;;;18.04;95.28;92776.81;5055299;28;20241;-71
2023/06/18 07:52:52;;;;;;;25.83;23.20;;;;;;;18.19;95.75;92781.53;5053783;28;20217;-71
2023/06/18 07:55:25;;;;;;;25.67;23.23;;;;;;;18.19;95.70;92790.25;5049693;28;20990;-72
2023/06/18 07:57:53;;;;;;;23.27;20.97;;;;;;;18.26;96.09;92790.50;5057639;28;20190;-73
2023/06/18 08:00:19;;;;;;;24.90;22.40;;;;;;;18.28;94.73;92792.81;5065700;28;20213;-72
2023/06/18 08:02:45;;;;;;;25.07;22.57;;;;;;;18.61;95.03;92793.72;5068981;28;20198;-72
2023/06/18 08:05:11;;;;;;;24.03;21.83;;;;;;;18.52;94.20;92793.00;5065363;28;20248;-70
2023/06/18 08:07:36;;;;;;;23.10;20.80;;;;;;;18.26;95.72;92792.38;5057977;28;20193;-71
2023/06/18 08:10:02;;;;;;;24.57;22.17;;;;;;;18.32;97.19;92799.78;5068176;28;20270;-71
2023/06/18 08:12:27;;;;;;;23.50;21.13;;;;;;;18.61;95.36;92805.09;5066145;28;20209;-71
2023/06/18 08:14:53;;;;;;;23.40;21.00;;;;;;;18.27;95.52;92813.19;5062760;28;20221;-71
2023/06/18 08:17:18;;;;;;;24.87;21.77;;;;;;;19.01;93.90;92810.66;5069132;28;20185;-72
2023/06/18 08:19:45;;;;;;;25.60;23.10;;;;;;;18.83;92.61;92814.56;5053816;28;20227;-69
2023/06/18 08:22:17;;;;;;;25.43;21.83;;;;;;;19.15;91.76;92816.44;5061682;28;21053;-72
2023/06/18 08:24:43;;;;;;;22.07;20.07;;;;;;;19.10;92.86;92819.28;5058119;28;20244;-73
2023/06/18 08:27:08;;;;;;;23.60;21.13;;;;;;;19.09;92.03;92807.94;5068510;28;20196;-70
2023/06/18 08:29:34;;;;;;;24.37;21.97;;;;;;;18.92;93.57;92807.31;5060595;28;20217;-71
2023/06/18 08:32:04;;;;;;;22.90;20.73;;;;;;;18.65;96.99;92824.50;5058900;28;20210;-71
2023/06/18 08:34:31;;;;;;;25.13;22.40;;;;;;;18.47;96.56;92827.56;5059203;28;20312;-70
2023/06/18 08:36:57;;;;;;;24.23;21.83;;;;;;;18.43;98.14;92805.50;5064214;28;20180;-71
2023/06/18 08:39:22;;;;;;;23.70;21.37;;;;;;;18.85;96.29;92833.50;5066264;28;20232;-71
2023/06/18 08:41:48;;;;;;;23.03;20.73;;;;;;;18.58;98.64;92837.47;5063288;28;20185;-71
2023/06/18 08:44:13;;;;;;;25.03;22.40;;;;;;;19.05;96.44;92838.78;5062795;28;20245;-71
2023/06/18 08:46:38;;;;;;;23.17;20.90;;;;;;;19.15;93.67;92816.44;5046638;28;20203;-71
2023/06/18 08:49:05;;;;;;;22.00;19.80;;;;;;;18.92;93.40;92839.84;5041648;28;20172;-72
2023/06/18 08:51:32;;;;;;;24.53;22.20;;;;;;;19.06;93.70;92823.69;5067335;28;20237;-71
2023/06/18 08:54:08;;;;;;;24.07;21.67;;;;;;;18.93;93.05;92835.31;5053571;28;20189;-72
2023/06/18 08:56:42;;;;;;;22.17;20.20;;;;;;;19.67;91.28;92825.47;5066564;28;20225;-69
2023/06/18 08:59:08;;;;;;;30.33;24.20;;;;;;;19.91;89.44;92817.53;5068275;28;20242;-70
2023/06/18 09:01:34;;;;;;;27.17;23.73;;;;;;;19.92;87.76;92832.31;5064946;28;20190;-71
2023/06/18 09:04:01;;;;;;;22.93;20.73;;;;;;;19.58;89.85;92835.38;5074567;28;20213;-74
2023/06/18 09:06:27;;;;;;;22.17;20.10;;;;;;;19.15;89.83;92811.16;5067106;28;20218;-72
2023/06/18 09:08:54;;;;;;;22.13;19.90;;;;;;;19.58;89.94;92835.38;5067671;28;20225;-71
2023/06/18 09:11:20;;;;;;;21.50;19.50;;;;;;;19.55;90.09;92837.91;5072035;28;20268;-72
2023/06/18 09:13:46;;;;;;;23.47;20.77;;;;;;;19.90;90.26;92837.19;5076386;28;20182;-73
2023/06/18 09:16:11;;;;;;;21.07;19.10;;;;;;;20.26;85.39;92841.78;5072001;28;20242;-73
2023/06/18 09:18:37;;;;;;;21.07;18.87;;;;;;;19.86;85.77;92838.94;5072047;28;20186;-71
2023/06/18 09:21:03;;;;;;;20.70;18.77;;;;;;;19.27;88.59;92824.44;5071687;28;20225;-72
2023/06/18 09:23:29;;;;;;;21.80;19.83;;;;;;;19.42;88.93;92831.81;5042682;28;20236;-73
2023/06/18 09:25:56;;;;;;;20.93;18.97;;;;;;;19.42;87.36;92836.31;5071674;28;20228;-72
2023/06/18 09:28:23;;;;;;;21.60;19.50;;;;;;;19.11;90.30;92820.88;5062300;28;20194;-72
2023/06/18 09:30:52;;;;;;;20.57;18.57;;;;;;;19.34;90.12;92845.91;5071222;28;20211;-73
2023/06/18 09:33:27;;;;;;;21.60;19.80;;;;;;;19.24;91.10;92835.66;5083968;28;20201;-72
2023/06/18 09:36:03;;;;;;;20.63;18.70;;;;;;;19.18;88.52;92842.28;5071249;28;20213;-72
2023/06/18 09:38:37;;;;;;;20.23;18.43;;;;;;;19.47;88.03;92844.81;5074236;28;20201;-73
2023/06/18 09:41:10;;;;;;;19.93;18.03;;;;;;;19.82;88.11;92843.38;5087037;28;20236;-72
2023/06/18 09:43:37;;;;;;;20.03;18.03;;;;;;;19.49;88.71;92841.84;5071992;28;20187;-72
2023/06/18 09:46:04;;;;;;;19.03;17.37;;;;;;;19.34;87.87;92840.59;5071233;28;20217;-72
2023/06/18 09:48:31;;;;;;;19.20;17.30;;;;;;;19.47;87.19;92844.06;5071801;28;20209;-71
2023/06/18 09:50:57;;;;;;;20.70;18.80;;;;;;;19.57;87.80;92833.03;5070719;28;20215;-73
2023/06/18 09:53:22;;;;;;;20.33;18.57;;;;;;;19.95;87.09;92836.22;5071250;28;20995;-72
2023/06/18 09:55:48;;;;;;;19.33;17.60;;;;;;;19.66;85.57;92820.50;5066783;28;20236;-74
2023/06/18 09:58:14;;;;;;;19.43;17.53;;;;;;;19.37;87.49;92839.94;5069796;28;20201;-76
2023/06/18 10:00:39;;;;;;;18.70;17.10;;;;;;;19.61;87.54;92837.34;5072067;28;20225;-71
2023/06/18 10:03:06;;;;;;;18.23;16.53;;;;;;;19.31;87.27;92845.78;5045968;28;20181;-73
2023/06/18 10:05:33;;;;;;;20.30;18.47;;;;;;;19.39;86.98;92843.06;5069925;28;20236;-70
2023/06/18 10:08:01;;;;;;;18.60;16.90;;;;;;;19.91;86.53;92845.91;5071985;28;20243;-71
2023/06/18 10:10:28;;;;;;;19.20;16.93;;;;;;;19.90;86.28;92841.72;5070552;28;20310;-70
2023/06/18 10:12:59;;;;;;;19.43;17.43;;;;;;;19.89;85.84;92851.53;5086928;28;20218;-69
2023/06/18 10:15:25;;;;;;;20.17;18.17;;;;;;;20.34;85.05;92846.97;5057157;28;20250;-68
2023/06/18 10:17:56;;;;;;;20.50;18.80;;;;;;;20.10;84.48;92846.94;5046800;28;20191;-71
2023/06/18 10:20:23;;;;;;;19.50;17.70;;;;;;;19.69;84.98;92839.16;5050852;28;20222;-71
2023/06/18 10:23:00;;;;;;;19.27;17.40;;;;;;;19.98;85.82;92843.50;5051603;28;20192;-71
2023/06/18 10:25:25;;;;;;;19.67;17.93;;;;;;;19.88;85.97;92826.16;5050780;28;20222;-71
2023/06/18 10:27:52;;;;;;;18.63;16.93;;;;;;;20.30;84.78;92835.47;5050390;28;20290;-78
2023/06/18 10:30:18;;;;;;;18.07;16.57;;;;;;;20.26;84.02;92837.25;5050598;28;20244;-73
2023/06/18 10:32:44;;;;;;;18.67;16.93;;;;;;;20.43;82.34;92844.97;5051061;28;20221;-71
2023/06/18 10:35:12;;;;;;;17.97;16.50;;;;;;;20.36;82.10;92828.84;5043848;28;20247;-73
2023/06/18 10:37:40;;;;;;;16.77;15.27;;;;;;;20.91;82.06;92836.16;5047155;28;20227;-78
2023/06/18 10:40:07;;;;;;;18.87;17.47;;;;;;;20.64;80.75;92819.09;5050343;28;20242;-74
2023/06/18 10:42:34;;;;;;;17.87;16.17;;;;;;;20.34;83.26;92830.28;5051848;28;20203;-71
2023/06/18 10:45:11;;;;;;;17.10;15.80;;;;;;;21.03;81.82;92824.78;5044253;28;20237;-71
2023/06/18 10:47:36;;;;;;;18.63;17.13;;;;;;;20.76;80.12;92826.25;5044459;28;20197;-73
2023/06/18 10:50:01;;;;;;;15.53;14.13;;;;;;;21.13;79.89;92835.69;5038021;28;20236;-76
2023/06/18 10:52:31;;;;;;;17.67;16.17;;;;;;;20.85;80.39;92820.81;5041958;28;20214;-73
2023/06/18 10:55:18;;;;;;;17.80;15.97;;;;;;;21.42;79.18;92830.03;5049144;28;20232;-73
2023/06/18 10:57:45;;;;;;;18.60;16.93;;;;;;;21.46;79.15;92832.78;5070467;28;20256;-71
2023/06/18 11:00:15;;;;;;;17.90;16.27;;;;;;;21.17;79.54;92831.22;5069816;28;20266;-71
2023/06/18 11:02:40;;;;;;;16.08;14.57;;;;;;;20.99;80.77;92822.00;5065463;28;20192;-72
2023/06/18 11:05:06;;;;;;;14.70;13.50;;;;;;;21.61;78.24;92824.06;5051460;28;20230;-74
2023/06/18 11:07:31;;;;;;;15.13;13.73;;;;;;;21.67;77.26;92830.66;5032857;28;20197;-79
2023/06/18 11:09:59;;;;;;;15.55;14.13;;;;;;;21.76;76.76;92837.41;5036763;28;20239;-73